createdAt,value
2018-10-06T06:42:09.014Z,1004.71
2018-10-06T06:43:09.652Z,1004.71
2018-10-06T06:44:10.464Z,1004.73
2018-10-06T06:45:11.207Z,1004.69
2018-10-06T06:48:15.083Z,1004.69
2018-10-06T06:49:15.720Z,1004.69
2018-10-06T06:50:16.383Z,1004.69
2018-10-06T06:51:17.053Z,1004.69
2018-10-06T06:52:17.709Z,1004.68
2018-10-06T06:54:19.120Z,1004.70
2018-10-06T06:56:20.427Z,1004.69
2018-10-06T06:57:21.121Z,1004.67
2018-10-06T06:58:21.910Z,1004.66
2018-10-06T06:59:22.549Z,1004.66
2018-10-06T07:01:24.036Z,1004.66
2018-10-06T07:02:25.815Z,1004.62
2018-10-06T07:03:26.512Z,1004.61
2018-10-06T07:04:48.346Z,1004.65
2018-10-06T07:05:49.113Z,1004.65
2018-10-06T07:07:04.554Z,1004.62
2018-10-06T07:08:05.200Z,1004.61
2018-10-06T07:09:07.028Z,1004.63
2018-10-06T07:10:07.676Z,1004.65
2018-10-06T07:12:10.153Z,1004.66
2018-10-06T07:13:10.838Z,1004.66
2018-10-06T07:14:12.691Z,1004.66
2018-10-06T07:15:13.394Z,1004.65
2018-10-06T07:18:16.620Z,1004.64
2018-10-06T07:19:17.256Z,1004.58
2018-10-06T07:21:18.707Z,1004.58
2018-10-06T07:22:19.516Z,1004.56
2018-10-06T07:23:20.169Z,1004.54
2018-10-06T07:25:26.347Z,1004.48
2018-10-06T07:26:27.101Z,1004.48
2018-10-06T07:27:27.787Z,1004.46
2018-10-06T07:31:31.584Z,1004.47
2018-10-06T07:33:33.146Z,1004.44
2018-10-06T07:34:34.094Z,1004.44
2018-10-06T07:35:34.679Z,1004.44
2018-10-06T07:37:36.071Z,1004.45
2018-10-06T07:41:39.955Z,1004.39
2018-10-06T07:42:40.590Z,1004.36
2018-10-06T07:44:43.085Z,1004.33
2018-10-06T07:45:46.056Z,1004.33
2018-10-06T07:46:46.653Z,1004.33
2018-10-06T07:48:49.229Z,1004.31
2018-10-06T07:50:52.748Z,1004.31
2018-10-06T07:53:08.801Z,1004.32
2018-10-06T08:09:56.123Z,1004.22
2018-10-06T08:10:56.678Z,1004.22
2018-10-06T08:11:58.651Z,1004.20
2018-10-06T08:12:59.248Z,1004.18
2018-10-06T08:13:59.803Z,1004.17
2018-10-06T08:15:00.369Z,1004.16
2018-10-06T08:16:01.290Z,1004.13
2018-10-06T08:17:01.812Z,1004.10
2018-10-06T08:18:02.289Z,1004.12
2018-10-06T08:19:02.742Z,1004.10
2018-10-06T08:20:03.253Z,1004.10
2018-10-06T08:21:04.495Z,1004.13
2018-10-06T08:22:05.122Z,1004.17
2018-10-06T08:23:06.206Z,1004.21
2018-10-06T08:24:06.791Z,1004.16
2018-10-06T08:25:07.518Z,1004.13
2018-10-06T08:26:08.191Z,1004.12
2018-10-06T08:27:08.827Z,1004.13
2018-10-06T08:28:09.670Z,1004.11
2018-10-06T08:29:10.848Z,1004.09
2018-10-06T08:30:11.982Z,1004.09
2018-10-06T08:31:12.635Z,1004.07
2018-10-06T08:32:13.283Z,1004.04
2018-10-06T08:33:13.932Z,1004.02
2018-10-06T08:34:15.039Z,1003.95
2018-10-06T08:35:15.985Z,1003.98
2018-10-06T08:36:16.637Z,1003.96
2018-10-06T08:37:17.313Z,1003.95
2018-10-06T08:38:18.017Z,1003.92
2018-10-06T08:39:18.667Z,1003.91
2018-10-06T08:40:19.354Z,1003.94
2018-10-06T08:41:20.003Z,1003.90
2018-10-06T08:42:20.499Z,1003.89
2018-10-06T08:43:21.554Z,1003.86
2018-10-06T08:44:22.190Z,1003.85
2018-10-06T08:45:23.052Z,1003.83
2018-10-06T08:46:23.633Z,1003.82
2018-10-06T08:47:24.465Z,1003.72
2018-10-06T08:48:24.991Z,1003.77
2018-10-06T08:49:25.689Z,1003.75
2018-10-06T08:50:26.587Z,1003.76
2018-10-06T08:51:27.634Z,1003.74
2018-10-06T08:52:28.379Z,1003.78
2018-10-06T08:53:29.504Z,1003.76
2018-10-06T08:54:30.133Z,1003.75
2018-10-06T08:55:30.654Z,1003.70
2018-10-06T08:56:31.842Z,1003.76
2018-10-06T08:57:32.305Z,1003.72
2018-10-06T08:58:33.851Z,1003.71
2018-10-06T08:59:34.367Z,1003.70
2018-10-06T09:00:34.922Z,1003.66
2018-10-06T09:01:35.458Z,1003.61
2018-10-06T09:02:35.968Z,1003.56
2018-10-06T09:03:36.466Z,1003.53
2018-10-06T09:04:36.976Z,1003.58
2018-10-06T09:05:37.695Z,1003.58
2018-10-06T09:06:38.191Z,1003.60
2018-10-06T09:07:38.727Z,1003.62
2018-10-06T09:08:39.259Z,1003.59
2018-10-06T09:09:39.752Z,1003.58
2018-10-06T09:10:40.286Z,1003.57
2018-10-06T09:11:40.790Z,1003.58
2018-10-06T09:12:41.453Z,1003.56
2018-10-06T09:13:41.815Z,1003.56
2018-10-06T09:14:42.385Z,1003.56
2018-10-06T09:15:42.812Z,1003.58
2018-10-06T09:16:43.288Z,1003.54
2018-10-06T09:17:44.913Z,1003.54
2018-10-06T09:18:45.338Z,1003.52
2018-10-06T09:19:45.872Z,1003.53
2018-10-06T09:20:46.369Z,1003.49
2018-10-06T09:21:47.926Z,1003.46
2018-10-06T09:22:48.431Z,1003.46
2018-10-06T09:23:49.994Z,1003.47
2018-10-06T09:24:50.501Z,1003.47
2018-10-06T09:25:51.022Z,1003.49
2018-10-06T09:26:51.532Z,1003.51
2018-10-06T09:27:53.157Z,1003.52
2018-10-06T09:28:53.648Z,1003.46
2018-10-06T09:29:55.336Z,1003.47
2018-10-06T09:30:56.032Z,1003.49
2018-10-06T09:31:56.279Z,1003.46
2018-10-06T09:32:56.793Z,1003.47
2018-10-06T09:33:57.388Z,1003.49
2018-10-06T09:34:57.953Z,1003.47
2018-10-06T09:35:58.491Z,1003.46
2018-10-06T09:36:59.053Z,1003.42
2018-10-06T09:37:59.556Z,1003.41
2018-10-06T09:39:01.260Z,1003.40
2018-10-06T09:40:01.766Z,1003.42
2018-10-06T09:41:02.282Z,1003.33
2018-10-06T09:42:03.014Z,1003.39
2018-10-06T09:43:03.323Z,1003.36
2018-10-06T09:44:03.833Z,1003.37
2018-10-06T09:45:04.337Z,1003.33
2018-10-06T09:46:04.869Z,1003.34
2018-10-06T09:47:05.400Z,1003.31
2018-10-06T09:48:06.064Z,1003.32
2018-10-06T09:49:06.533Z,1003.29
2018-10-06T09:50:07.075Z,1003.29
2018-10-06T09:51:07.659Z,1003.24
2018-10-06T09:52:09.335Z,1003.28
2018-10-06T09:53:09.843Z,1003.29
2018-10-06T09:54:10.365Z,1003.25
2018-10-06T09:55:10.882Z,1003.22
2018-10-06T09:56:11.409Z,1003.16
2018-10-06T10:26:29.660Z,1002.88
2018-10-06T10:28:07.954Z,1002.83
2018-10-06T10:30:13.252Z,1002.81
2018-10-06T12:51:40.859Z,1001.60
2018-10-06T12:52:41.500Z,1001.64
2018-10-06T12:53:42.169Z,1001.63
2018-10-06T12:54:42.933Z,1001.61
2018-10-06T12:55:43.554Z,1001.62
2018-10-06T12:56:45.236Z,1001.61
2018-10-06T12:57:45.946Z,1001.54
2018-10-06T12:58:46.678Z,1001.57
2018-10-06T12:59:47.381Z,1001.50
2018-10-06T13:00:54.057Z,1001.53
2018-10-06T13:01:54.734Z,1001.53
2018-10-06T13:02:57.460Z,1001.51
2018-10-06T13:03:58.130Z,1001.52
2018-10-06T13:05:04.549Z,1001.49
2018-10-06T13:06:05.238Z,1001.55
2018-10-06T13:15:31.345Z,1001.42
2018-10-06T14:05:38.269Z,1001.42
2018-10-06T14:06:38.969Z,1001.38
2018-10-06T14:07:39.613Z,1001.39
2018-10-06T14:08:40.278Z,1001.38
2018-10-06T14:09:40.947Z,1001.39
2018-10-06T14:10:41.682Z,1001.35
2018-10-06T14:11:42.346Z,1001.35
2018-10-06T14:12:43.017Z,1001.37
2018-10-06T14:13:43.684Z,1001.34
2018-10-06T14:14:44.438Z,1001.32
2018-10-06T14:15:45.050Z,1001.30
2018-10-06T14:16:46.047Z,1001.29
2018-10-06T14:17:46.705Z,1001.29
2018-10-06T14:18:47.367Z,1001.30
2018-10-06T14:19:48.081Z,1001.27
2018-10-06T14:20:48.715Z,1001.23
2018-10-06T14:21:49.381Z,1001.27
2018-10-06T14:22:50.086Z,1001.23
2018-10-06T14:23:50.749Z,1001.22
2018-10-06T14:24:51.419Z,1001.22
2018-10-06T14:25:52.103Z,1001.23
2018-10-06T14:26:52.909Z,1001.19
2018-10-06T14:27:53.590Z,1001.21
2018-10-06T14:28:54.373Z,1001.19
2018-10-06T14:29:54.968Z,1001.14
2018-10-06T14:30:55.631Z,1001.11
2018-10-06T14:31:56.308Z,1001.11
2018-10-06T14:32:56.968Z,1001.09
2018-10-06T14:33:57.635Z,1001.05
2018-10-06T14:34:58.322Z,1001.07
2018-10-06T14:35:58.980Z,1001.09
2018-10-06T14:36:59.765Z,1001.06
2018-10-06T14:38:00.445Z,1001.05
2018-10-06T14:39:01.158Z,1001.03
2018-10-06T14:40:01.828Z,1001.03
2018-10-06T14:41:02.491Z,1001.01
2018-10-06T14:53:56.013Z,1000.97
2018-10-06T14:54:56.639Z,1000.95
2018-10-06T14:55:57.367Z,1000.92
2018-10-06T15:09:08.836Z,1000.81
2018-10-06T15:10:09.558Z,1000.84
2018-10-06T15:35:56.641Z,1000.65
2018-10-06T15:36:57.306Z,1000.67
2018-10-06T15:37:58.045Z,1000.69
2018-10-06T15:38:58.639Z,1000.68
2018-10-06T15:39:59.306Z,1000.68
2018-10-06T15:41:00.025Z,1000.69
2018-10-06T15:42:00.720Z,1000.70
2018-10-06T15:43:01.446Z,1000.69
2018-10-06T15:44:02.097Z,1000.69
2018-10-06T15:45:02.810Z,1000.67
2018-10-06T15:46:03.438Z,1000.68
2018-10-06T15:47:04.107Z,1000.65
2018-10-06T15:48:04.766Z,1000.67
2018-10-06T15:49:05.439Z,1000.61
2018-10-06T15:50:06.112Z,1000.62
2018-10-06T15:51:06.865Z,1000.61
2018-10-06T15:52:07.450Z,1000.60
2018-10-06T15:53:08.117Z,1000.58
2018-10-06T15:54:08.783Z,1000.60
2018-10-06T15:55:09.461Z,1000.58
2018-10-06T15:56:10.122Z,1000.60
2018-10-06T15:57:10.785Z,1000.57
2018-10-06T15:58:11.453Z,1000.62
2018-10-06T15:59:12.141Z,1000.58
2018-10-06T16:00:12.865Z,1000.61
2018-10-06T16:01:13.533Z,1000.62
2018-10-06T16:02:14.316Z,1000.62
2018-10-06T16:03:15.010Z,1000.63
2018-10-06T16:04:15.689Z,1000.63
2018-10-06T16:05:16.368Z,1000.61
2018-10-06T16:06:17.021Z,1000.59
2018-10-06T16:07:17.687Z,1000.63
2018-10-06T16:08:18.354Z,1000.62
2018-10-06T16:09:19.064Z,1000.65
2018-10-06T16:10:19.734Z,1000.65
2018-10-06T16:11:20.422Z,1000.67
2018-10-06T16:12:21.153Z,1000.64
2018-10-06T16:13:21.765Z,1000.67
2018-10-06T16:14:22.443Z,1000.64
2018-10-06T16:15:23.127Z,1000.64
2018-10-06T16:16:23.768Z,1000.64
2018-10-06T16:18:43.543Z,1000.65
2018-10-06T16:19:44.856Z,1000.63
2018-10-06T16:20:45.514Z,1000.63
2018-10-06T16:21:46.305Z,1000.64
2018-10-06T16:22:46.945Z,1000.62
2018-10-06T16:23:47.739Z,1000.62
2018-10-06T16:24:48.418Z,1000.58
2018-10-06T16:25:49.812Z,1000.58
2018-10-06T16:27:25.367Z,1000.58
2018-10-06T16:30:12.592Z,1000.64
2018-10-06T16:32:13.632Z,1000.61
2018-10-06T16:34:14.529Z,1000.59
2018-10-06T16:37:15.926Z,1000.60
2018-10-06T16:38:16.427Z,1000.60
2018-10-06T16:39:18.041Z,1000.60
2018-10-06T16:42:19.484Z,1000.67
2018-10-06T16:43:20.021Z,1000.70
2018-10-06T16:44:20.514Z,1000.69
2018-10-06T16:45:21.019Z,1000.68
2018-10-06T16:46:21.511Z,1000.67
2018-10-06T16:47:22.017Z,1000.68
2018-10-06T16:48:22.624Z,1000.67
2018-10-06T16:49:23.112Z,1000.67
2018-10-06T16:50:23.613Z,1000.66
2018-10-06T16:51:24.104Z,1000.66
2018-10-06T16:52:24.609Z,1000.66
2018-10-06T16:53:25.102Z,1000.66
2018-10-06T16:54:25.601Z,1000.66
2018-10-06T16:55:26.121Z,1000.67
2018-10-06T16:56:26.617Z,1000.66
2018-10-06T17:03:29.967Z,1000.66
2018-10-06T17:04:30.601Z,1000.79
2018-10-06T17:05:31.114Z,1000.76
2018-10-06T17:06:31.654Z,1000.75
2018-10-06T17:07:32.127Z,1000.83
2018-10-06T17:08:32.790Z,1000.83
2018-10-06T17:10:33.747Z,1000.84
2018-10-06T17:11:34.390Z,1000.83
2018-10-06T17:12:34.971Z,1000.83
2018-10-06T17:13:35.424Z,1000.86
2018-10-06T17:14:35.894Z,1000.84
2018-10-06T17:15:36.587Z,1000.78
2018-10-06T17:16:37.086Z,1000.83
2018-10-06T17:17:42.795Z,1000.83
